Time;durP1;ratioP1;P1;durP2;ratioP2;P2;SDS_P1;SDS_P2;PMS_P1;PMS_P2;Temp;Humidity;BMP_temperature;BMP_pressure;BME280_temperature;BME280_humidity;BME280_pressure;Samples;Min_cycle;Max_cycle;Signal;HPM_P1;HPM_P2
2022/01/13 00:00:00;;;;;;;217.43;38.20;;;;;;;;;;5032496;28;20268;-68
2022/01/13 00:02:31;;;;;;;207.73;40.40;;;;;;;;;;5028760;28;21125;-68
2022/01/13 00:04:56;;;;;;;207.87;38.37;;;;;;;;;;5031572;28;20343;-68
2022/01/13 00:07:21;;;;;;;191.10;39.10;;;;;;;;;;5030457;28;20268;-68
2022/01/13 00:09:47;;;;;;;154.27;37.23;;;;;;;;;;5034507;28;20272;-68
2022/01/13 00:12:14;;;;;;;162.93;35.80;;;;;;;;;;5030342;28;20197;-68
2022/01/13 00:15:06;;;;;;;180.17;37.57;;;;;;;;;;5031712;28;20716;-68
2022/01/13 00:17:56;;;;;;;194.80;38.33;;;;;;;;;;5033824;28;20282;-68
2022/01/13 00:25:33;;;;;;;165.43;34.17;;;;;;;;;;5033218;28;20281;-68
2022/01/13 00:28:01;;;;;;;217.23;37.80;;;;;;;;;;5034365;28;20198;-69
2022/01/13 00:30:27;;;;;;;214.33;39.63;;;;;;;;;;5036814;28;20292;-68
2022/01/13 00:32:52;;;;;;;212.40;38.67;;;;;;;;;;5035579;28;20300;-69
2022/01/13 00:35:17;;;;;;;214.17;37.43;;;;;;;;;;5036822;28;20212;-68
2022/01/13 00:37:43;;;;;;;205.93;36.70;;;;;;;;;;5038451;28;20186;-68
2022/01/13 00:40:09;;;;;;;220.93;39.47;;;;;;;;;;5036443;28;20620;-68
2022/01/13 00:42:35;;;;;;;225.17;37.53;;;;;;;;;;5034354;28;20186;-68
2022/01/13 00:45:01;;;;;;;232.97;37.97;;;;;;;;;;5037319;28;20189;-68
2022/01/13 00:47:29;;;;;;;221.23;35.13;;;;;;;;;;5037898;28;20268;-67
2022/01/13 00:49:57;;;;;;;177.13;34.57;;;;;;;;;;5035491;28;20232;-68
2022/01/13 00:52:23;;;;;;;258.67;36.50;;;;;;;;;;5037466;28;20192;-68
2022/01/13 00:54:48;;;;;;;230.83;38.73;;;;;;;;;;5035950;28;20181;-68
2022/01/13 00:57:13;;;;;;;217.40;37.13;;;;;;;;;;5035317;28;20696;-68
2022/01/13 00:59:39;;;;;;;244.03;40.30;;;;;;;;;;5035454;28;20275;-69
2022/01/13 01:02:04;;;;;;;215.33;36.73;;;;;;;;;;5037164;28;20352;-68
2022/01/13 01:04:29;;;;;;;243.97;38.17;;;;;;;;;;5035711;28;20189;-68
2022/01/13 01:06:55;;;;;;;234.90;38.30;;;;;;;;;;5036867;28;20452;-68
2022/01/13 01:09:32;;;;;;;272.33;42.07;;;;;;;;;;5034129;28;20487;-68
2022/01/13 01:11:57;;;;;;;221.40;37.40;;;;;;;;;;5036021;28;20177;-68
2022/01/13 01:14:24;;;;;;;235.77;37.83;;;;;;;;;;5037340;28;20220;-68
2022/01/13 01:16:50;;;;;;;284.70;40.50;;;;;;;;;;5033082;28;20201;-68
2022/01/13 01:19:25;;;;;;;275.00;40.93;;;;;;;;;;5035802;28;20194;-69
2022/01/13 01:22:15;;;;;;;271.30;39.17;;;;;;;;;;5036214;28;20180;-68
2022/01/13 01:27:22;;;;;;;254.00;37.43;;;;;;;;;;5036027;28;20540;-69
2022/01/13 01:30:09;;;;;;;240.30;38.23;;;;;;;;;;5034061;28;20537;-68
2022/01/13 01:32:36;;;;;;;305.60;41.80;;;;;;;;;;5034140;28;20189;-68
2022/01/13 01:35:04;;;;;;;274.27;40.90;;;;;;;;;;5036269;28;20678;-68
2022/01/13 01:37:30;;;;;;;254.10;38.77;;;;;;;;;;5032261;28;20177;-68
2022/01/13 01:39:57;;;;;;;231.20;38.13;;;;;;;;;;5037033;28;20186;-69
2022/01/13 01:42:24;;;;;;;237.77;37.13;;;;;;;;;;5031824;28;20181;-69
2022/01/13 01:44:54;;;;;;;238.00;37.97;;;;;;;;;;5035415;28;20216;-69
2022/01/13 01:47:21;;;;;;;303.17;40.50;;;;;;;;;;5033185;28;20252;-69
2022/01/13 01:49:52;;;;;;;292.00;41.33;;;;;;;;;;5033898;28;20186;-69
2022/01/13 01:52:19;;;;;;;306.57;43.10;;;;;;;;;;5033991;28;20203;-69
2022/01/13 01:54:45;;;;;;;333.50;43.17;;;;;;;;;;5034056;28;20537;-68
2022/01/13 01:57:12;;;;;;;353.57;44.60;;;;;;;;;;5033255;28;20314;-68
2022/01/13 01:59:40;;;;;;;323.07;42.17;;;;;;;;;;5034822;28;20189;-68
2022/01/13 02:02:07;;;;;;;305.23;41.43;;;;;;;;;;5033910;28;20224;-67
2022/01/13 02:04:36;;;;;;;324.17;43.13;;;;;;;;;;5036066;28;20415;-68
2022/01/13 02:07:04;;;;;;;300.80;41.70;;;;;;;;;;5036021;28;20499;-68
2022/01/13 02:09:30;;;;;;;323.97;42.83;;;;;;;;;;5035064;28;20217;-69
2022/01/13 02:11:59;;;;;;;325.80;43.37;;;;;;;;;;5036918;28;20319;-69
2022/01/13 02:17:08;;;;;;;328.33;42.37;;;;;;;;;;5034862;28;20209;-68
2022/01/13 02:19:37;;;;;;;329.90;43.30;;;;;;;;;;5034498;28;20204;-68
2022/01/13 02:22:04;;;;;;;369.60;45.67;;;;;;;;;;5033878;28;20533;-68
2022/01/13 02:24:29;;;;;;;301.70;43.70;;;;;;;;;;5035883;28;20192;-68
2022/01/13 02:26:55;;;;;;;247.70;39.47;;;;;;;;;;5035335;28;20412;-68
2022/01/13 02:29:21;;;;;;;315.97;43.57;;;;;;;;;;5034444;28;20364;-68
2022/01/13 02:31:46;;;;;;;302.40;43.03;;;;;;;;;;5036506;28;20209;-69
2022/01/13 02:34:12;;;;;;;313.93;43.17;;;;;;;;;;5032789;28;20591;-69
2022/01/13 02:36:38;;;;;;;330.90;57.70;;;;;;;;;;5035929;28;20214;-68
2022/01/13 02:39:04;;;;;;;353.93;60.40;;;;;;;;;;5032538;28;20193;-69
2022/01/13 02:41:29;;;;;;;231.30;44.27;;;;;;;;;;5034277;28;20591;-69
2022/01/13 02:43:58;;;;;;;274.40;43.43;;;;;;;;;;5032535;28;20201;-69
2022/01/13 02:47:21;;;;;;;295.57;45.43;;;;;;;;;;5033526;28;20190;-68
2022/01/13 02:49:12;;;;;;;424.23;73.93;;;;;;;;;;5025773;28;21592;-68
2022/01/13 02:51:41;;;;;;;295.30;47.17;;;;;;;;;;5034075;28;20177;-69
2022/01/13 02:54:08;;;;;;;252.70;39.57;;;;;;;;;;5030243;28;20278;-68
2022/01/13 02:56:34;;;;;;;274.43;41.23;;;;;;;;;;5034450;28;20582;-69
2022/01/13 02:58:59;;;;;;;239.73;38.00;;;;;;;;;;5031992;28;20223;-68
2022/01/13 03:01:25;;;;;;;284.60;39.87;;;;;;;;;;5033080;28;20882;-68
2022/01/13 03:03:50;;;;;;;267.67;39.40;;;;;;;;;;5032784;28;20629;-69
2022/01/13 03:06:22;;;;;;;192.57;34.13;;;;;;;;;;5034754;28;20291;-68
2022/01/13 03:08:51;;;;;;;234.13;38.17;;;;;;;;;;5033369;28;20799;-68
2022/01/13 03:11:17;;;;;;;265.13;38.60;;;;;;;;;;5033607;28;20193;-69
2022/01/13 03:13:43;;;;;;;235.60;37.80;;;;;;;;;;5032136;28;20186;-68
2022/01/13 03:16:10;;;;;;;230.87;36.33;;;;;;;;;;5034983;28;20590;-68
2022/01/13 03:18:36;;;;;;;279.00;39.83;;;;;;;;;;5030960;28;20259;-68
2022/01/13 03:21:01;;;;;;;224.80;36.33;;;;;;;;;;5033335;28;20639;-68
2022/01/13 03:23:26;;;;;;;254.13;38.47;;;;;;;;;;5033494;28;20666;-68
2022/01/13 03:25:53;;;;;;;278.80;40.33;;;;;;;;;;5033409;28;20561;-69
2022/01/13 03:28:29;;;;;;;234.93;37.73;;;;;;;;;;5033298;28;20648;-69
2022/01/13 03:30:55;;;;;;;266.53;39.40;;;;;;;;;;5034574;28;20211;-69
2022/01/13 03:33:21;;;;;;;230.57;38.37;;;;;;;;;;5032981;28;20209;-69
2022/01/13 03:35:47;;;;;;;247.20;37.73;;;;;;;;;;5032572;28;20402;-69
2022/01/13 03:38:12;;;;;;;213.80;36.40;;;;;;;;;;5033789;28;20212;-69
2022/01/13 03:40:38;;;;;;;256.73;36.70;;;;;;;;;;5032257;28;20688;-68
2022/01/13 03:43:05;;;;;;;232.83;35.57;;;;;;;;;;5032528;28;20193;-68
2022/01/13 03:45:32;;;;;;;326.80;38.73;;;;;;;;;;5033194;28;20239;-69
2022/01/13 03:47:58;;;;;;;232.23;36.03;;;;;;;;;;5032066;28;20224;-68
2022/01/13 03:50:23;;;;;;;216.63;35.40;;;;;;;;;;5033251;28;20537;-68
2022/01/13 03:53:01;;;;;;;231.77;36.50;;;;;;;;;;5033699;28;20191;-68
2022/01/13 03:55:35;;;;;;;257.13;38.63;;;;;;;;;;5032836;28;20200;-68
2022/01/13 03:58:45;;;;;;;194.13;34.70;;;;;;;;;;5033149;28;20240;-68
2022/01/13 04:01:19;;;;;;;273.23;39.07;;;;;;;;;;5033505;28;20244;-68
2022/01/13 04:03:45;;;;;;;254.10;38.37;;;;;;;;;;5034963;28;20260;-68
2022/01/13 04:06:11;;;;;;;242.17;37.47;;;;;;;;;;5036565;28;20185;-68
2022/01/13 04:08:36;;;;;;;242.40;38.73;;;;;;;;;;5037254;28;20247;-68
2022/01/13 04:11:05;;;;;;;298.50;39.87;;;;;;;;;;5037408;28;20184;-68
2022/01/13 04:13:48;;;;;;;261.60;38.93;;;;;;;;;;5033636;28;20677;-69
2022/01/13 04:16:16;;;;;;;261.50;37.17;;;;;;;;;;5036748;28;20205;-69
2022/01/13 04:18:41;;;;;;;252.87;40.97;;;;;;;;;;5037788;28;20185;-69
2022/01/13 04:21:07;;;;;;;208.23;36.27;;;;;;;;;;5034990;28;20185;-68
2022/01/13 04:23:33;;;;;;;231.03;36.73;;;;;;;;;;5036414;28;20188;-68
2022/01/13 04:25:59;;;;;;;288.73;37.50;;;;;;;;;;5040280;28;20287;-68
2022/01/13 04:28:28;;;;;;;207.50;34.77;;;;;;;;;;5036122;28;21154;-68
2022/01/13 04:31:00;;;;;;;179.30;34.50;;;;;;;;;;5037541;28;20201;-68
2022/01/13 04:33:27;;;;;;;249.60;35.40;;;;;;;;;;5035711;28;21681;-68
2022/01/13 04:35:53;;;;;;;230.03;36.23;;;;;;;;;;5038800;28;20541;-68
2022/01/13 04:38:18;;;;;;;312.77;38.63;;;;;;;;;;5036895;28;20189;-68
2022/01/13 04:40:46;;;;;;;233.53;35.53;;;;;;;;;;5036560;28;20586;-68
2022/01/13 04:43:12;;;;;;;219.37;34.50;;;;;;;;;;5035249;28;20598;-68
2022/01/13 04:45:38;;;;;;;194.27;33.47;;;;;;;;;;5037770;28;20581;-69
2022/01/13 04:48:04;;;;;;;202.93;34.20;;;;;;;;;;5035255;28;20190;-68
2022/01/13 04:50:30;;;;;;;207.60;33.07;;;;;;;;;;5037758;28;20279;-68
2022/01/13 04:52:55;;;;;;;212.63;34.03;;;;;;;;;;5035144;28;20189;-69
2022/01/13 04:55:25;;;;;;;208.57;34.93;;;;;;;;;;5034186;28;20278;-69
2022/01/13 04:57:51;;;;;;;224.53;34.50;;;;;;;;;;5038272;28;20197;-68
2022/01/13 05:00:17;;;;;;;219.17;35.43;;;;;;;;;;5035758;28;20195;-68
2022/01/13 05:02:43;;;;;;;267.83;36.63;;;;;;;;;;5033360;28;20650;-68
2022/01/13 05:05:08;;;;;;;228.97;35.77;;;;;;;;;;5037124;28;20193;-69
2022/01/13 05:07:34;;;;;;;204.87;34.90;;;;;;;;;;5033563;28;20193;-68
2022/01/13 05:09:59;;;;;;;258.07;37.90;;;;;;;;;;5034802;28;20619;-69
2022/01/13 05:12:30;;;;;;;277.43;38.20;;;;;;;;;;5034332;28;20632;-69
2022/01/13 05:15:04;;;;;;;204.43;32.40;;;;;;;;;;5035083;28;20296;-69
2022/01/13 05:18:15;;;;;;;198.17;33.87;;;;;;;;;;5034437;28;20301;-69
2022/01/13 05:20:26;;;;;;;190.93;31.33;;;;;;;;;;5028242;28;20791;-69
2022/01/13 05:22:52;;;;;;;178.00;32.07;;;;;;;;;;5034514;28;20194;-69
2022/01/13 05:25:20;;;;;;;189.83;31.00;;;;;;;;;;5035983;28;20528;-68
2022/01/13 05:27:45;;;;;;;196.63;32.83;;;;;;;;;;5037019;28;20201;-69
2022/01/13 05:30:12;;;;;;;203.83;32.80;;;;;;;;;;5034731;28;20204;-69
2022/01/13 05:32:37;;;;;;;205.83;33.40;;;;;;;;;;5033298;28;20294;-69
2022/01/13 05:35:03;;;;;;;209.63;32.80;;;;;;;;;;5035178;28;20185;-69
2022/01/13 05:37:29;;;;;;;190.53;31.07;;;;;;;;;;5033423;28;20245;-69
2022/01/13 05:39:54;;;;;;;190.83;30.00;;;;;;;;;;5034378;28;20190;-68
2022/01/13 05:42:20;;;;;;;198.27;30.57;;;;;;;;;;5034196;28;20220;-68
2022/01/13 05:44:46;;;;;;;173.27;31.40;;;;;;;;;;5034961;28;20189;-66
2022/01/13 05:47:13;;;;;;;185.10;31.67;;;;;;;;;;5034134;28;20420;-67
2022/01/13 05:49:40;;;;;;;223.73;32.53;;;;;;;;;;5033195;28;20948;-68
2022/01/13 05:52:06;;;;;;;198.80;31.70;;;;;;;;;;5031731;28;20209;-68
2022/01/13 05:54:32;;;;;;;227.00;32.03;;;;;;;;;;5034362;28;20832;-68
2022/01/13 05:56:58;;;;;;;151.77;28.77;;;;;;;;;;5033703;28;20592;-68
2022/01/13 05:59:24;;;;;;;169.37;30.40;;;;;;;;;;5034587;28;20223;-68
2022/01/13 06:01:49;;;;;;;160.57;29.60;;;;;;;;;;4997753;28;1022357;-68
2022/01/13 06:04:14;;;;;;;183.57;29.70;;;;;;;;;;5032459;28;20190;-69
2022/01/13 06:06:40;;;;;;;164.07;31.13;;;;;;;;;;5035181;28;20265;-68
2022/01/13 06:09:05;;;;;;;155.73;28.83;;;;;;;;;;5032811;28;20704;-68
2022/01/13 06:11:38;;;;;;;150.47;27.37;;;;;;;;;;5032693;28;20244;-68
2022/01/13 06:14:05;;;;;;;155.30;27.97;;;;;;;;;;5034168;28;20197;-68
2022/01/13 06:16:30;;;;;;;169.43;29.37;;;;;;;;;;5033808;28;20204;-68
2022/01/13 06:18:55;;;;;;;172.10;31.20;;;;;;;;;;5034603;28;20194;-68
2022/01/13 06:21:21;;;;;;;113.80;25.90;;;;;;;;;;5032652;28;20698;-68
2022/01/13 06:23:46;;;;;;;154.57;28.37;;;;;;;;;;5031469;28;20193;-68
2022/01/13 06:26:12;;;;;;;122.07;25.03;;;;;;;;;;5035747;28;20255;-68
2022/01/13 06:28:37;;;;;;;147.57;27.97;;;;;;;;;;5033708;28;20226;-68
2022/01/13 06:31:02;;;;;;;142.43;28.30;;;;;;;;;;5034925;28;20208;-68
2022/01/13 06:33:28;;;;;;;150.87;27.03;;;;;;;;;;5032899;28;20438;-68
2022/01/13 06:35:54;;;;;;;140.40;26.17;;;;;;;;;;5033916;28;20209;-68
2022/01/13 06:38:20;;;;;;;114.73;24.13;;;;;;;;;;5033300;28;20177;-68
2022/01/13 06:40:45;;;;;;;135.67;28.00;;;;;;;;;;5040463;28;20189;-68
2022/01/13 06:43:11;;;;;;;126.97;24.47;;;;;;;;;;5038504;28;20185;-68
2022/01/13 06:45:36;;;;;;;97.63;22.80;;;;;;;;;;5043255;28;20269;-68
2022/01/13 06:48:02;;;;;;;124.23;23.97;;;;;;;;;;5040040;28;20696;-68
2022/01/13 06:50:28;;;;;;;107.37;23.10;;;;;;;;;;5040884;28;20189;-68
2022/01/13 06:52:54;;;;;;;98.30;22.00;;;;;;;;;;5042618;28;20173;-68
2022/01/13 06:55:19;;;;;;;136.40;24.83;;;;;;;;;;5042295;28;20219;-68
2022/01/13 06:57:46;;;;;;;97.80;22.60;;;;;;;;;;5034355;28;20178;-69
2022/01/13 07:00:12;;;;;;;98.40;22.87;;;;;;;;;;5037591;28;20699;-69
2022/01/13 07:02:37;;;;;;;98.43;23.03;;;;;;;;;;5042998;28;20259;-69
2022/01/13 07:05:03;;;;;;;109.13;22.80;;;;;;;;;;5038199;28;20489;-69
2022/01/13 07:07:33;;;;;;;141.50;24.80;;;;;;;;;;5044499;28;20276;-69
2022/01/13 07:09:59;;;;;;;114.37;24.27;;;;;;;;;;5043529;28;20216;-69
2022/01/13 07:12:24;;;;;;;103.47;23.33;;;;;;;;;;5043633;28;20220;-69
2022/01/13 07:14:49;;;;;;;105.17;24.13;;;;;;;;;;5040620;28;20200;-69
2022/01/13 07:17:15;;;;;;;118.93;23.70;;;;;;;;;;5043104;28;20248;-69
2022/01/13 07:19:40;;;;;;;134.23;23.03;;;;;;;;;;5041193;28;20215;-68
2022/01/13 07:22:06;;;;;;;140.90;25.07;;;;;;;;;;5043343;28;20173;-68
2022/01/13 07:24:32;;;;;;;100.90;23.13;;;;;;;;;;5039600;28;20595;-69
2022/01/13 07:26:57;;;;;;;119.13;22.77;;;;;;;;;;5043107;28;20659;-68
2022/01/13 07:29:22;;;;;;;113.53;22.30;;;;;;;;;;5043405;28;20531;-68
2022/01/13 07:31:48;;;;;;;115.47;23.63;;;;;;;;;;5045373;28;20306;-68
2022/01/13 07:34:13;;;;;;;113.47;23.93;;;;;;;;;;5038494;28;20181;-68
2022/01/13 07:36:40;;;;;;;91.47;22.60;;;;;;;;;;5040379;28;20284;-68
2022/01/13 07:39:06;;;;;;;101.13;22.97;;;;;;;;;;5039880;28;20230;-68
2022/01/13 07:41:32;;;;;;;106.17;21.97;;;;;;;;;;5041307;28;20287;-68
2022/01/13 07:43:57;;;;;;;100.07;22.17;;;;;;;;;;5046243;28;20592;-69
2022/01/13 07:46:23;;;;;;;99.90;22.23;;;;;;;;;;5044768;28;20193;-69
2022/01/13 07:48:49;;;;;;;98.40;21.90;;;;;;;;;;5043602;28;20601;-69
2022/01/13 07:51:15;;;;;;;97.97;22.50;;;;;;;;;;5047902;28;20528;-68
2022/01/13 07:53:40;;;;;;;119.33;23.67;;;;;;;;;;5042947;28;20191;-68
2022/01/13 07:56:06;;;;;;;98.13;21.97;;;;;;;;;;5040891;28;20223;-68
2022/01/13 07:58:33;;;;;;;88.77;21.73;;;;;;;;;;5037475;28;20189;-68
2022/01/13 08:00:58;;;;;;;95.97;22.43;;;;;;;;;;5041721;28;20182;-69
2022/01/13 08:03:24;;;;;;;100.73;22.53;;;;;;;;;;5043977;28;20584;-68
2022/01/13 08:05:49;;;;;;;87.97;21.03;;;;;;;;;;5040709;28;20244;-68
2022/01/13 08:08:14;;;;;;;107.23;22.67;;;;;;;;;;5037494;28;20288;-68
2022/01/13 08:10:40;;;;;;;104.03;22.77;;;;;;;;;;5044091;28;20589;-69
2022/01/13 08:13:05;;;;;;;143.37;23.27;;;;;;;;;;5043299;28;20193;-68
2022/01/13 08:15:31;;;;;;;106.47;23.13;;;;;;;;;;5043554;28;20648;-69
2022/01/13 08:20:40;;;;;;;116.03;22.43;;;;;;;;;;5044371;28;20299;-69
2022/01/13 08:23:06;;;;;;;114.20;23.90;;;;;;;;;;5042377;28;20257;-69
2022/01/13 08:25:32;;;;;;;125.43;24.77;;;;;;;;;;5043075;28;20174;-69
2022/01/13 08:27:58;;;;;;;125.87;25.27;;;;;;;;;;5042490;28;20185;-69
2022/01/13 08:30:23;;;;;;;125.47;23.20;;;;;;;;;;5039724;28;20227;-69
2022/01/13 08:32:49;;;;;;;109.00;23.10;;;;;;;;;;5043900;28;20644;-69
2022/01/13 08:35:14;;;;;;;106.70;22.53;;;;;;;;;;5044439;28;20200;-68
2022/01/13 08:37:40;;;;;;;98.63;23.70;;;;;;;;;;5042809;28;20460;-69
2022/01/13 08:40:09;;;;;;;114.63;23.67;;;;;;;;;;5045896;28;20196;-69
2022/01/13 08:42:36;;;;;;;105.80;22.10;;;;;;;;;;5042593;28;20259;-69
2022/01/13 08:45:04;;;;;;;110.07;22.77;;;;;;;;;;5044558;28;20593;-69
2022/01/13 08:47:29;;;;;;;123.60;22.60;;;;;;;;;;5041928;28;20243;-69
2022/01/13 08:49:55;;;;;;;121.07;22.57;;;;;;;;;;5045974;28;20185;-68
2022/01/13 08:52:21;;;;;;;130.97;25.47;;;;;;;;;;5047303;28;20181;-68
2022/01/13 08:54:47;;;;;;;143.23;23.77;;;;;;;;;;5045766;28;20280;-68
2022/01/13 08:57:14;;;;;;;138.00;24.13;;;;;;;;;;5046333;28;20280;-69
2022/01/13 08:59:39;;;;;;;100.57;22.37;;;;;;;;;;5046631;28;20208;-69
2022/01/13 09:02:05;;;;;;;171.63;25.43;;;;;;;;;;5045489;28;20256;-68
2022/01/13 09:04:31;;;;;;;138.97;25.20;;;;;;;;;;5045729;28;20192;-69
2022/01/13 09:06:56;;;;;;;120.30;24.00;;;;;;;;;;5047105;28;20625;-69
2022/01/13 09:09:22;;;;;;;136.73;24.90;;;;;;;;;;5045087;28;20189;-69
2022/01/13 09:11:48;;;;;;;112.70;23.10;;;;;;;;;;5046333;28;20212;-68
2022/01/13 09:14:15;;;;;;;126.23;22.57;;;;;;;;;;5039901;28;20550;-68
2022/01/13 09:16:42;;;;;;;91.70;22.20;;;;;;;;;;5037660;28;20205;-69
2022/01/13 09:19:11;;;;;;;125.97;23.63;;;;;;;;;;5044661;28;20190;-69
2022/01/13 09:21:37;;;;;;;110.27;22.70;;;;;;;;;;5046971;28;20185;-69
2022/01/13 09:24:05;;;;;;;112.33;23.10;;;;;;;;;;5038773;28;20268;-69
2022/01/13 09:26:31;;;;;;;124.37;22.50;;;;;;;;;;5045729;28;20181;-69
2022/01/13 09:28:56;;;;;;;118.53;22.90;;;;;;;;;;5041634;28;20252;-69
2022/01/13 09:31:22;;;;;;;117.63;23.13;;;;;;;;;;5044868;28;20210;-69
2022/01/13 09:33:48;;;;;;;104.33;21.90;;;;;;;;;;5046786;28;20180;-69
2022/01/13 09:36:15;;;;;;;131.80;23.17;;;;;;;;;;5046730;28;20236;-69
2022/01/13 09:38:40;;;;;;;85.13;20.40;;;;;;;;;;5047253;28;20672;-69
2022/01/13 09:41:06;;;;;;;100.47;22.90;;;;;;;;;;5047458;28;20196;-68
2022/01/13 09:43:31;;;;;;;107.43;21.20;;;;;;;;;;5044294;28;20193;-68
2022/01/13 09:45:58;;;;;;;100.13;21.23;;;;;;;;;;5048477;28;20629;-68
2022/01/13 09:48:26;;;;;;;112.53;22.13;;;;;;;;;;5047736;28;20173;-69
2022/01/13 09:50:51;;;;;;;71.10;18.93;;;;;;;;;;5047763;28;20182;-69
2022/01/13 09:53:17;;;;;;;103.63;19.30;;;;;;;;;;5045231;28;20185;-69
2022/01/13 09:55:46;;;;;;;81.37;20.20;;;;;;;;;;5045382;28;20237;-69
2022/01/13 09:58:12;;;;;;;79.40;21.40;;;;;;;;;;5048518;28;20271;-69
2022/01/13 10:00:39;;;;;;;90.93;20.43;;;;;;;;;;5044142;28;20177;-69
2022/01/13 10:03:11;;;;;;;87.27;19.57;;;;;;;;;;5045444;28;20232;-69
2022/01/13 10:05:47;;;;;;;123.10;20.90;;;;;;;;;;5044237;28;20299;-69
2022/01/13 10:08:12;;;;;;;91.20;19.33;;;;;;;;;;5044922;28;20186;-68
2022/01/13 10:10:38;;;;;;;106.97;21.93;;;;;;;;;;5044624;28;20189;-69
2022/01/13 10:13:10;;;;;;;79.20;19.50;;;;;;;;;;5046535;28;20177;-68
2022/01/13 10:18:44;;;;;;;72.90;20.53;;;;;;;;;;5045833;28;20277;-69
2022/01/13 10:21:15;;;;;;;82.27;20.30;;;;;;;;;;5047710;28;20675;-69
2022/01/13 10:24:10;;;;;;;99.40;20.30;;;;;;;;;;5046209;28;20674;-69
2022/01/13 10:26:37;;;;;;;75.03;19.00;;;;;;;;;;5046411;28;20205;-69
2022/01/13 10:29:08;;;;;;;74.70;20.10;;;;;;;;;;5045657;28;20626;-69
2022/01/13 10:31:45;;;;;;;84.60;21.17;;;;;;;;;;5043499;28;20251;-69
2022/01/13 10:34:19;;;;;;;61.13;17.70;;;;;;;;;;5045746;28;20697;-68
2022/01/13 10:37:26;;;;;;;64.43;20.47;;;;;;;;;;5044391;28;20271;-68
2022/01/13 10:40:11;;;;;;;85.20;19.87;;;;;;;;;;5035420;28;20254;-68
2022/01/13 10:45:32;;;;;;;55.40;18.40;;;;;;;;;;5041075;28;20184;-68
2022/01/13 10:47:59;;;;;;;84.33;20.80;;;;;;;;;;5037637;28;20196;-68
2022/01/13 10:50:36;;;;;;;69.53;18.90;;;;;;;;;;5043008;28;20470;-68
2022/01/13 10:53:05;;;;;;;54.87;18.30;;;;;;;;;;5047258;28;20188;-68
2022/01/13 10:55:35;;;;;;;60.33;17.93;;;;;;;;;;5041664;28;20177;-68
2022/01/13 10:58:00;;;;;;;51.03;17.57;;;;;;;;;;5044004;28;20197;-68
2022/01/13 11:00:28;;;;;;;64.87;19.23;;;;;;;;;;5045681;28;20480;-68
2022/01/13 11:03:07;;;;;;;58.83;17.93;;;;;;;;;;5044333;28;20308;-68
2022/01/13 11:05:36;;;;;;;65.50;19.83;;;;;;;;;;5038044;28;20185;-68
2022/01/13 11:08:07;;;;;;;69.43;19.33;;;;;;;;;;5044987;28;20193;-68
2022/01/13 11:10:34;;;;;;;63.73;19.30;;;;;;;;;;5040430;28;20178;-68
2022/01/13 11:13:01;;;;;;;63.60;20.07;;;;;;;;;;5041620;28;20195;-68
2022/01/13 11:15:27;;;;;;;58.37;19.30;;;;;;;;;;5046019;28;20180;-68
2022/01/13 11:17:55;;;;;;;81.83;22.77;;;;;;;;;;5043379;28;20201;-69
2022/01/13 11:20:22;;;;;;;51.40;18.83;;;;;;;;;;5046511;28;20520;-68
2022/01/13 11:22:49;;;;;;;70.90;20.13;;;;;;;;;;5043950;28;20634;-68
2022/01/13 11:25:17;;;;;;;61.03;18.70;;;;;;;;;;5044656;28;20185;-70
2022/01/13 11:27:44;;;;;;;69.13;18.63;;;;;;;;;;5043000;28;20253;-68
2022/01/13 11:30:14;;;;;;;59.30;19.83;;;;;;;;;;5044977;28;20303;-68
2022/01/13 11:32:41;;;;;;;61.27;19.63;;;;;;;;;;5043562;28;20257;-68
2022/01/13 11:35:09;;;;;;;53.07;18.33;;;;;;;;;;5046760;28;20182;-68
2022/01/13 11:37:35;;;;;;;58.50;19.20;;;;;;;;;;5045671;28;20209;-68
2022/01/13 11:40:00;;;;;;;52.10;19.20;;;;;;;;;;5042721;28;20196;-69
2022/01/13 11:42:26;;;;;;;58.43;20.03;;;;;;;;;;5046478;28;20247;-69
2022/01/13 11:45:10;;;;;;;58.80;20.27;;;;;;;;;;5045002;28;20197;-69
2022/01/13 11:47:35;;;;;;;51.90;18.87;;;;;;;;;;5042090;28;20184;-69
2022/01/13 11:50:18;;;;;;;53.90;20.27;;;;;;;;;;5037673;28;20232;-69
2022/01/13 11:52:50;;;;;;;53.80;18.50;;;;;;;;;;5047342;28;20201;-69
2022/01/13 11:55:35;;;;;;;52.60;18.57;;;;;;;;;;5039167;28;20173;-69
2022/01/13 11:58:18;;;;;;;51.87;18.60;;;;;;;;;;5042172;28;20320;-69
2022/01/13 12:00:46;;;;;;;59.67;18.83;;;;;;;;;;5037756;28;20216;-69
2022/01/13 12:03:21;;;;;;;51.33;18.00;;;;;;;;;;5042743;28;20711;-68
2022/01/13 12:05:46;;;;;;;55.97;19.33;;;;;;;;;;5037357;28;20563;-69
2022/01/13 12:08:39;;;;;;;62.93;19.70;;;;;;;;;;5043554;28;20189;-69
2022/01/13 12:11:06;;;;;;;63.13;18.40;;;;;;;;;;5042838;28;20189;-69
2022/01/13 12:13:35;;;;;;;59.83;18.60;;;;;;;;;;5042902;28;20245;-69
2022/01/13 12:16:01;;;;;;;54.53;18.43;;;;;;;;;;5044289;28;20285;-69
2022/01/13 12:18:48;;;;;;;49.43;18.10;;;;;;;;;;5042788;28;20724;-69
2022/01/13 12:21:29;;;;;;;57.73;17.43;;;;;;;;;;5042955;28;20272;-68
2022/01/13 12:23:56;;;;;;;46.43;17.30;;;;;;;;;;5045246;28;20197;-69
2022/01/13 12:26:33;;;;;;;49.80;16.63;;;;;;;;;;5048144;28;20653;-69
2022/01/13 12:29:11;;;;;;;54.57;17.77;;;;;;;;;;5046074;28;20188;-69
2022/01/13 12:31:51;;;;;;;46.63;17.43;;;;;;;;;;5045362;28;20212;-69
2022/01/13 12:34:29;;;;;;;66.97;19.07;;;;;;;;;;5048448;28;20193;-69
2022/01/13 12:37:00;;;;;;;47.67;16.83;;;;;;;;;;5048838;28;20205;-69
2022/01/13 12:39:26;;;;;;;59.67;18.07;;;;;;;;;;5048138;28;20202;-69
2022/01/13 12:41:59;;;;;;;50.47;16.77;;;;;;;;;;5040048;28;23626;-69
2022/01/13 12:47:09;;;;;;;47.50;16.63;;;;;;;;;;5046636;28;20204;-69
2022/01/13 12:49:35;;;;;;;50.40;16.87;;;;;;;;;;5048481;28;20189;-69
2022/01/13 12:52:01;;;;;;;50.27;17.20;;;;;;;;;;5049081;28;20200;-68
2022/01/13 12:54:26;;;;;;;50.03;16.33;;;;;;;;;;5045790;28;20597;-68
2022/01/13 12:56:51;;;;;;;50.13;17.77;;;;;;;;;;5045254;28;20259;-68
2022/01/13 12:59:17;;;;;;;55.33;17.50;;;;;;;;;;5044440;28;20665;-68
2022/01/13 13:01:42;;;;;;;52.47;17.20;;;;;;;;;;5044062;28;20225;-67
2022/01/13 13:04:10;;;;;;;44.60;16.67;;;;;;;;;;5045761;28;20886;-68
2022/01/13 13:06:43;;;;;;;46.03;17.37;;;;;;;;;;5045754;28;20272;-68
2022/01/13 13:09:10;;;;;;;48.03;17.70;;;;;;;;;;5046089;28;20481;-68
2022/01/13 13:11:41;;;;;;;44.80;16.83;;;;;;;;;;5043060;28;20192;-67
2022/01/13 13:14:15;;;;;;;43.73;17.13;;;;;;;;;;5045015;28;20185;-68
2022/01/13 13:16:45;;;;;;;49.03;18.13;;;;;;;;;;5046416;28;20292;-68
2022/01/13 13:19:10;;;;;;;42.57;17.17;;;;;;;;;;5046756;28;20217;-69
2022/01/13 13:21:36;;;;;;;45.50;16.53;;;;;;;;;;5045926;28;20205;-68
2022/01/13 13:24:01;;;;;;;39.90;17.13;;;;;;;;;;5044210;28;20197;-69
2022/01/13 13:26:26;;;;;;;43.50;18.10;;;;;;;;;;5047489;28;20192;-68
2022/01/13 13:28:52;;;;;;;41.83;17.73;;;;;;;;;;5046213;28;20189;-69
2022/01/13 13:31:23;;;;;;;44.57;17.60;;;;;;;;;;5044682;28;20219;-69
2022/01/13 13:33:55;;;;;;;44.87;18.03;;;;;;;;;;5047387;28;20220;-68
2022/01/13 13:36:27;;;;;;;37.37;17.03;;;;;;;;;;5044559;28;20205;-68
2022/01/13 13:38:59;;;;;;;42.80;17.43;;;;;;;;;;5042998;28;20571;-68
2022/01/13 13:41:27;;;;;;;39.53;16.80;;;;;;;;;;5044346;28;20629;-68
2022/01/13 13:43:54;;;;;;;43.63;15.83;;;;;;;;;;5043657;28;20200;-68
2022/01/13 13:46:20;;;;;;;38.87;16.97;;;;;;;;;;5044854;28;20221;-68
2022/01/13 13:48:47;;;;;;;48.50;17.97;;;;;;;;;;5045292;28;20652;-68
2022/01/13 13:51:17;;;;;;;39.40;17.30;;;;;;;;;;5044658;28;20184;-68
2022/01/13 13:54:17;;;;;;;43.67;16.73;;;;;;;;;;5041166;28;20185;-68
2022/01/13 13:57:04;;;;;;;40.97;16.87;;;;;;;;;;5045585;28;20222;-68
2022/01/13 13:59:36;;;;;;;43.97;17.57;;;;;;;;;;5037900;28;20671;-68
2022/01/13 14:02:11;;;;;;;39.23;17.60;;;;;;;;;;5039769;28;20222;-68
2022/01/13 14:05:01;;;;;;;41.47;17.13;;;;;;;;;;5041676;28;20189;-68
2022/01/13 14:07:35;;;;;;;43.00;17.43;;;;;;;;;;5042232;28;20201;-68
2022/01/13 14:10:15;;;;;;;33.77;16.70;;;;;;;;;;5042714;28;20223;-68
2022/01/13 14:12:45;;;;;;;43.47;16.73;;;;;;;;;;5042685;28;20691;-68
2022/01/13 14:15:10;;;;;;;43.53;17.73;;;;;;;;;;5045510;28;20664;-68
2022/01/13 14:17:35;;;;;;;40.97;16.60;;;;;;;;;;5044875;28;20201;-68
2022/01/13 14:20:07;;;;;;;40.97;17.57;;;;;;;;;;5044289;28;20594;-68
2022/01/13 14:22:33;;;;;;;37.23;15.97;;;;;;;;;;5042734;28;20201;-68
2022/01/13 14:24:58;;;;;;;38.77;17.33;;;;;;;;;;5046540;28;20212;-68
2022/01/13 14:27:24;;;;;;;38.70;16.43;;;;;;;;;;5040373;28;20260;-68
2022/01/13 14:29:51;;;;;;;33.07;14.93;;;;;;;;;;5041982;28;20557;-68
2022/01/13 14:32:23;;;;;;;36.33;16.80;;;;;;;;;;5043268;28;20272;-68
2022/01/13 14:34:56;;;;;;;37.30;16.47;;;;;;;;;;5044149;28;20256;-68
2022/01/13 14:37:25;;;;;;;39.23;17.37;;;;;;;;;;5041154;28;20244;-68